createdAt,value
2023-12-24T00:03:19.201Z,96.50
2023-12-24T00:08:24.087Z,96.61
2023-12-24T00:13:27.918Z,96.27
2023-12-24T00:18:31.021Z,95.94
2023-12-24T00:23:35.633Z,96.96
2023-12-24T00:28:38.675Z,97.11
2023-12-24T00:33:41.759Z,96.44
2023-12-24T00:38:46.362Z,96.37
2023-12-24T00:43:49.544Z,96.47
2023-12-24T00:48:52.901Z,95.57
2023-12-24T00:53:57.647Z,96.76
2023-12-24T00:59:00.614Z,96.58
2023-12-24T01:04:03.810Z,95.76
2023-12-24T01:09:08.474Z,95.18
2023-12-24T01:14:11.591Z,94.94
2023-12-24T01:19:14.935Z,95.05
2023-12-24T01:24:19.811Z,94.81
2023-12-24T01:29:22.925Z,94.67
2023-12-24T01:34:25.974Z,93.88
2023-12-24T01:39:30.442Z,94.02
2023-12-24T01:44:33.471Z,93.32
2023-12-24T01:49:37.204Z,93.57
2023-12-24T01:54:42.728Z,93.83
2023-12-24T01:59:46.203Z,93.60
2023-12-24T02:04:50.709Z,93.38
2023-12-24T02:09:55.803Z,93.59
2023-12-24T02:14:58.810Z,93.81
2023-12-24T02:20:02.160Z,93.67
2023-12-24T02:25:07.922Z,93.54
2023-12-24T02:30:17.178Z,93.76
2023-12-24T02:35:21.058Z,93.52
2023-12-24T02:40:25.660Z,92.86
2023-12-24T02:45:32.534Z,91.91
2023-12-24T02:50:36.013Z,92.49
2023-12-24T02:55:40.583Z,91.89
2023-12-24T03:00:43.669Z,91.61
2023-12-24T03:05:46.690Z,91.61
2023-12-24T03:10:51.359Z,91.58
2023-12-24T03:15:54.343Z,91.17
2023-12-24T03:20:57.277Z,90.99
2023-12-24T03:26:01.822Z,90.22
2023-12-24T03:31:05.108Z,90.34
2023-12-24T03:36:09.334Z,90.09
2023-12-24T03:41:13.941Z,89.73
2023-12-24T03:46:20.018Z,89.28
2023-12-24T03:51:23.031Z,89.14
2023-12-24T03:56:27.888Z,89.03
2023-12-24T04:01:31.010Z,89.32
2023-12-24T04:06:34.095Z,89.76
2023-12-24T04:11:38.640Z,89.15
2023-12-24T04:16:41.667Z,89.09
2023-12-24T04:21:44.637Z,89.06
2023-12-24T04:26:49.346Z,88.54
2023-12-24T04:31:52.562Z,88.81
2023-12-24T04:36:55.644Z,88.02
2023-12-24T04:42:00.254Z,87.88
2023-12-24T04:47:03.229Z,88.28
2023-12-24T04:52:06.461Z,87.86
2023-12-24T04:57:11.125Z,88.00
2023-12-24T05:02:14.204Z,87.91
2023-12-24T05:07:17.393Z,87.46
2023-12-24T05:12:21.906Z,87.29
2023-12-24T05:17:25.013Z,87.82
2023-12-24T05:22:28.205Z,87.81
2023-12-24T05:27:32.894Z,87.58
2023-12-24T05:32:36.073Z,87.55
2023-12-24T05:37:39.137Z,87.37
2023-12-24T05:42:44.252Z,87.57
2023-12-24T05:47:47.277Z,87.23
2023-12-24T05:52:50.481Z,86.95
2023-12-24T05:57:55.138Z,87.27
2023-12-24T06:02:58.316Z,87.31
2023-12-24T06:08:01.408Z,87.01
2023-12-24T06:13:06.003Z,87.06
2023-12-24T06:18:09.607Z,86.74
2023-12-24T06:23:12.839Z,86.93
2023-12-24T06:28:17.343Z,86.68
2023-12-24T06:33:20.397Z,86.94
2023-12-24T06:38:23.699Z,86.58
2023-12-24T06:43:28.209Z,86.66
2023-12-24T06:48:31.431Z,86.55
2023-12-24T06:53:34.499Z,86.66
2023-12-24T06:58:39.062Z,86.45
2023-12-24T07:03:42.356Z,85.99
2023-12-24T07:08:45.387Z,86.39
2023-12-24T07:13:49.911Z,86.19
2023-12-24T07:18:53.097Z,86.20
2023-12-24T07:23:56.191Z,86.00
2023-12-24T07:29:01.865Z,86.26
2023-12-24T07:34:05.241Z,86.34
2023-12-24T07:39:08.225Z,86.42
2023-12-24T07:44:13.028Z,86.58
2023-12-24T07:49:16.035Z,86.42
2023-12-24T07:54:19.172Z,86.90
2023-12-24T07:59:23.726Z,86.89
2023-12-24T08:04:26.715Z,86.81
2023-12-24T08:09:30.034Z,86.94
2023-12-24T08:14:34.729Z,87.56
2023-12-24T08:19:37.837Z,88.25
2023-12-24T08:24:40.891Z,88.38
2023-12-24T08:29:45.466Z,88.76
2023-12-24T08:34:48.573Z,89.36
2023-12-24T08:39:51.522Z,89.61
2023-12-24T08:44:56.002Z,90.27
2023-12-24T08:49:59.131Z,90.72
2023-12-24T08:55:02.185Z,90.75
2023-12-24T09:00:08.319Z,91.27
2023-12-24T09:05:11.351Z,90.77
2023-12-24T09:10:14.341Z,90.57
2023-12-24T09:15:19.053Z,91.10
2023-12-24T09:20:22.093Z,91.00
2023-12-24T09:25:25.058Z,91.03
2023-12-24T09:30:29.684Z,92.23
2023-12-24T09:35:32.675Z,91.52
2023-12-24T09:40:35.830Z,91.69
2023-12-24T09:45:40.309Z,92.43
2023-12-24T09:50:46.405Z,91.90
2023-12-24T09:55:49.978Z,91.61
2023-12-24T10:00:54.531Z,91.46
2023-12-24T10:06:00.825Z,91.26
2023-12-24T10:11:18.237Z,91.12
2023-12-24T10:16:22.830Z,90.61
2023-12-24T10:21:26.155Z,90.53
2023-12-24T10:26:29.205Z,90.49
2023-12-24T10:31:33.993Z,89.99
2023-12-24T10:36:36.993Z,90.26
2023-12-24T10:41:40.053Z,90.70
2023-12-24T10:46:44.827Z,90.52
2023-12-24T10:51:47.794Z,90.30
2023-12-24T10:57:08.045Z,90.78
2023-12-24T11:02:14.982Z,90.81
2023-12-24T11:07:49.644Z,91.09
2023-12-24T11:13:01.896Z,91.17
2023-12-24T11:18:11.330Z,90.80
2023-12-24T11:23:15.523Z,91.02
2023-12-24T11:28:39.273Z,90.44
2023-12-24T11:33:50.676Z,90.10
2023-12-24T11:38:58.616Z,90.62
2023-12-24T11:44:01.891Z,91.06
2023-12-24T11:49:06.629Z,91.75
2023-12-24T11:54:09.620Z,92.57
2023-12-24T11:59:12.653Z,93.28
2023-12-24T12:04:21.826Z,92.76
2023-12-24T12:09:26.394Z,92.55
2023-12-24T12:14:30.971Z,93.54
2023-12-24T12:19:35.622Z,93.29
2023-12-24T12:24:38.576Z,93.23
2023-12-24T12:29:41.598Z,93.19
2023-12-24T12:34:46.236Z,93.63
2023-12-24T12:39:52.096Z,93.70
2023-12-24T12:44:55.851Z,93.45
2023-12-24T12:50:00.435Z,93.65
2023-12-24T12:55:04.396Z,93.32
2023-12-24T13:00:10.229Z,92.91
2023-12-24T13:05:28.633Z,93.95
2023-12-24T13:10:32.655Z,93.60
2023-12-24T13:15:38.566Z,93.41
2023-12-24T13:20:44.254Z,93.19
2023-12-24T13:25:48.090Z,93.35
2023-12-24T13:30:51.288Z,94.16
2023-12-24T13:35:56.009Z,93.65
2023-12-24T13:40:59.061Z,93.24
2023-12-24T13:46:02.003Z,93.91
2023-12-24T13:51:06.742Z,94.20
2023-12-24T13:56:09.959Z,93.87
2023-12-24T14:01:13.004Z,93.44
2023-12-24T14:06:17.685Z,93.85
2023-12-24T14:11:20.713Z,93.48
2023-12-24T14:16:23.668Z,93.38
2023-12-24T14:21:28.156Z,93.90
2023-12-24T14:26:31.146Z,93.39
2023-12-24T14:31:34.498Z,94.06
2023-12-24T14:36:39.001Z,93.23
2023-12-24T14:41:42.028Z,93.34
2023-12-24T14:46:49.309Z,93.01
2023-12-24T14:51:53.846Z,92.96
2023-12-24T14:56:56.812Z,93.49
2023-12-24T15:01:59.981Z,93.35
2023-12-24T15:07:04.536Z,93.39
2023-12-24T15:12:08.315Z,93.24
2023-12-24T15:17:11.280Z,93.46
2023-12-24T15:22:15.830Z,93.58
2023-12-24T15:27:18.998Z,93.88
2023-12-24T15:32:22.000Z,93.73
2023-12-24T15:37:26.534Z,93.38
2023-12-24T15:42:29.613Z,93.02
2023-12-24T15:47:32.948Z,92.95
2023-12-24T15:52:37.562Z,93.09
2023-12-24T15:57:40.526Z,92.88
2023-12-24T16:02:43.625Z,92.36
2023-12-24T16:07:48.396Z,93.12
2023-12-24T16:12:52.127Z,93.16
2023-12-24T16:17:55.521Z,93.11
2023-12-24T16:23:00.166Z,92.90
2023-12-24T16:28:03.158Z,92.36
2023-12-24T16:33:06.274Z,92.32
2023-12-24T16:38:11.079Z,91.25
2023-12-24T16:43:14.075Z,90.73
2023-12-24T16:48:17.249Z,90.74
2023-12-24T16:53:22.083Z,90.78
2023-12-24T16:58:25.101Z,90.63
2023-12-24T17:03:28.243Z,90.40
2023-12-24T17:08:32.844Z,90.22
2023-12-24T17:13:35.921Z,90.17
2023-12-24T17:18:39.211Z,89.85
2023-12-24T17:23:44.004Z,89.53
2023-12-24T17:28:46.971Z,89.46
2023-12-24T17:33:50.208Z,89.82
2023-12-24T17:38:54.876Z,89.79
2023-12-24T17:43:58.312Z,90.22
2023-12-24T17:49:01.401Z,90.48
2023-12-24T17:54:06.557Z,90.80
2023-12-24T17:59:09.558Z,90.42
2023-12-24T18:04:12.610Z,90.77
2023-12-24T18:09:17.267Z,90.92
2023-12-24T18:14:20.432Z,90.54
2023-12-24T18:19:23.597Z,86.72
2023-12-24T18:24:28.125Z,86.39
2023-12-24T18:29:31.125Z,87.95
2023-12-24T18:34:34.281Z,88.19
2023-12-24T18:39:38.827Z,89.15
2023-12-24T18:44:41.827Z,88.80
2023-12-24T18:49:45.218Z,88.42
2023-12-24T18:54:49.784Z,88.32
2023-12-24T18:59:52.814Z,88.72
2023-12-24T19:04:55.858Z,88.67
2023-12-24T19:10:00.353Z,88.47
2023-12-24T19:15:03.514Z,88.68
2023-12-24T19:20:07.808Z,89.43
2023-12-24T19:25:12.678Z,89.54
2023-12-24T19:30:15.983Z,89.03
2023-12-24T19:35:19.260Z,88.82
2023-12-24T19:40:23.828Z,87.78
2023-12-24T19:45:26.763Z,88.95
2023-12-24T19:50:29.727Z,89.04
2023-12-24T19:55:34.248Z,89.21
2023-12-24T20:00:37.375Z,88.61
2023-12-24T20:05:40.389Z,88.47
2023-12-24T20:10:44.927Z,89.09
2023-12-24T20:15:47.851Z,88.74
2023-12-24T20:20:51.167Z,88.57
2023-12-24T20:25:55.682Z,88.83
2023-12-24T20:30:58.834Z,88.55
2023-12-24T20:36:03.270Z,88.71
2023-12-24T20:41:08.029Z,89.09
2023-12-24T20:46:11.398Z,89.02
2023-12-24T20:51:17.256Z,88.59
2023-12-24T20:56:21.816Z,88.10
2023-12-24T21:01:24.819Z,88.51
2023-12-24T21:06:27.908Z,88.30
2023-12-24T21:11:32.596Z,88.41
2023-12-24T21:16:35.554Z,87.98
2023-12-24T21:21:38.521Z,87.44
2023-12-24T21:26:42.986Z,88.54
2023-12-24T21:31:45.955Z,88.75
2023-12-24T21:36:48.915Z,88.38
2023-12-24T21:41:53.646Z,88.44
2023-12-24T21:46:56.716Z,88.42
2023-12-24T21:51:59.632Z,88.58
2023-12-24T21:57:04.367Z,89.13
2023-12-24T22:02:07.436Z,88.87
2023-12-24T22:07:10.587Z,88.79
2023-12-24T22:12:15.103Z,88.43
2023-12-24T22:17:18.065Z,88.49
2023-12-24T22:22:21.039Z,88.34
2023-12-24T22:27:25.598Z,88.64
2023-12-24T22:32:28.631Z,88.32
2023-12-24T22:37:31.869Z,88.08
2023-12-24T22:42:36.348Z,88.16
2023-12-24T22:47:39.536Z,89.21
2023-12-24T22:52:42.728Z,88.69
2023-12-24T22:57:47.261Z,88.89
2023-12-24T23:02:50.483Z,88.07
2023-12-24T23:07:53.751Z,88.23
2023-12-24T23:12:58.376Z,88.87
2023-12-24T23:18:03.089Z,88.70
2023-12-24T23:23:06.246Z,88.27
2023-12-24T23:28:10.983Z,87.71
2023-12-24T23:33:14.033Z,87.76
2023-12-24T23:38:17.059Z,87.24
2023-12-24T23:43:21.567Z,87.08
2023-12-24T23:48:24.554Z,87.50
2023-12-24T23:53:27.588Z,87.75
2023-12-24T23:58:32.064Z,88.14
